Observation data for Tatum on 02/11/2019      Previous  Date  Next       Current Mesonet Observations  Soil Data  Daily Summary Page  Observations in Plain Language
KTAT 110600Z 20010KT 06/03 A299 RMK A01 T00550028  RH  084%=      5-min Rain = 0
KTAT 110605Z 20009KT 05/03 A299 RMK A01 T00540027  RH  084%=      5-min Rain = 0
KTAT 110610Z 20009KT 05/03 A299 RMK A01 T00530027  RH  084%=      5-min Rain = 0
KTAT 110615Z 19009KT 05/03 A299 RMK A01 T00520026  RH  085%=      5-min Rain = 0
KTAT 110620Z 19010KT 05/03 A299 RMK A01 T00500026  RH  085%=      5-min Rain = 0
KTAT 110625Z 18011KT 05/03 A2989 RMK A01 T00490025  RH  086%=      5-min Rain = 0
KTAT 110630Z 18011KT 05/02 A2989 RMK A01 T00480024  RH  086%=      5-min Rain = 0
KTAT 110635Z 19011KT 05/02 A2989 RMK A01 T00480024  RH  086%=      5-min Rain = 0
KTAT 110640Z 19013KT 05/03 A2989 RMK A01 T00520025  RH  084%=      5-min Rain = 0
KTAT 110645Z 19012KT 05/02 A2989 RMK A01 T00520023  RH  083%=      5-min Rain = 0
KTAT 110650Z 20011KT 05/02 A2989 RMK A01 T00500021  RH  083%=      5-min Rain = 0
KTAT 110655Z 20011KT 05/02 A2989 RMK A01 T00500020  RH  082%=      5-min Rain = 0
KTAT 110700Z 20011KT 05/02 A2989 RMK A01 T00500019  RH  082%=      5-min Rain = 0
KTAT 110705Z 20011KT 05/02 A2989 RMK A01 T00490020  RH  083%=      5-min Rain = 0
KTAT 110710Z 20011KT 05/02 A2989 RMK A01 T00500020  RH  082%=      5-min Rain = 0
KTAT 110715Z 20011KT 05/02 A2988 RMK A01 T00500020  RH  082%=      5-min Rain = 0
KTAT 110720Z 20012KT 05/02 A2988 RMK A01 T00500019  RH  082%=      5-min Rain = 0
KTAT 110725Z 20011KT 05/02 A2988 RMK A01 T00510019  RH  081%=      5-min Rain = 0
KTAT 110730Z 20011KT 05/02 A2988 RMK A01 T00500019  RH  081%=      5-min Rain = 0
KTAT 110735Z 21010KT 05/02 A2988 RMK A01 T00500019  RH  081%=      5-min Rain = 0
KTAT 110740Z 22010KT 05/02 A2988 RMK A01 T00500019  RH  082%=      5-min Rain = 0
KTAT 110745Z 22010KT 05/02 A2988 RMK A01 T00500019  RH  082%=      5-min Rain = 0
KTAT 110750Z 22010KT 05/02 A2987 RMK A01 T00490019  RH  082%=      5-min Rain = 0
KTAT 110755Z 22009KT 05/02 A2987 RMK A01 T00480018  RH  082%=      5-min Rain = 0
KTAT 110800Z 21008KT 05/02 A2987 RMK A01 T00460016  RH  082%=      5-min Rain = 0
KTAT 110805Z 21008KT 05/02 A2987 RMK A01 T00450016  RH  082%=      5-min Rain = 0
KTAT 110810Z 21007KT 04/01 A2987 RMK A01 T00430014  RH  082%=      5-min Rain = 0
KTAT 110815Z 22007KT 04/01 A2987 RMK A01 T00420013  RH  083%=      5-min Rain = 0
KTAT 110820Z 21007KT 04/01 A2987 RMK A01 T00410011  RH  082%=      5-min Rain = 0
KTAT 110825Z 21008KT 04/01 A2987 RMK A01 T00390009  RH  082%=      5-min Rain = 0
KTAT 110830Z 21008KT 04/01 A2987 RMK A01 T00380008  RH  082%=      5-min Rain = 0
KTAT 110835Z 21008KT 04/01 A2987 RMK A01 T00360006  RH  082%=      5-min Rain = 0
KTAT 110840Z 22007KT 04/01 A2986 RMK A01 T00350006  RH  082%=      5-min Rain = 0
KTAT 110845Z 24007KT 03/00 A2986 RMK A01 T00320003  RH  082%=      5-min Rain = 0
KTAT 110850Z 24006KT 03/00 A2986 RMK A01 T00280001  RH  083%=      5-min Rain = 0
KTAT 110855Z 26006KT 03/M00 A2986 RMK A01 T00261001  RH  083%=      5-min Rain = 0
KTAT 110900Z 27005KT 02/M00 A2986 RMK A01 T00221003  RH  084%=      5-min Rain = 0
KTAT 110905Z 26005KT 02/M00 A2986 RMK A01 T00231001  RH  085%=      5-min Rain = 0
KTAT 110910Z 25005KT 03/00 A2986 RMK A01 T00270001  RH  084%=      5-min Rain = 0
KTAT 110915Z 25005KT 03/00 A2985 RMK A01 T002800-0  RH  083%=      5-min Rain = 0
KTAT 110920Z 24005KT 03/M00 A2985 RMK A01 T00271001  RH  082%=      5-min Rain = 0
KTAT 110925Z 22006KT 02/M01 A2985 RMK A01 T00221005  RH  083%=      5-min Rain = 0
KTAT 110930Z 21008KT 03/00 A2985 RMK A01 T00250001  RH  085%=      5-min Rain = 0
KTAT 110935Z 21009KT 03/01 A2985 RMK A01 T00330006  RH  084%=      5-min Rain = 0
KTAT 110940Z 21008KT 03/00 A2985 RMK A01 T00330004  RH  082%=      5-min Rain = 0
KTAT 110945Z 20008KT 03/00 A2985 RMK A01 T00310003  RH  083%=      5-min Rain = 0
KTAT 110950Z 21007KT 03/00 A2984 RMK A01 T00300002  RH  083%=      5-min Rain = 0
KTAT 110955Z 22005KT 03/00 A2984 RMK A01 T00280001  RH  084%=      5-min Rain = 0
KTAT 111000Z 23005KT 03/00 A2984 RMK A01 T00260001  RH  085%=      5-min Rain = 0
KTAT 111005Z 23005KT 02/00 A2984 RMK A01 T002300-0  RH  086%=      5-min Rain = 0
KTAT 111010Z 22007KT 02/00 A2983 RMK A01 T00240002  RH  086%=      5-min Rain = 0
KTAT 111015Z 22006KT 03/01 A2983 RMK A01 T00280005  RH  086%=      5-min Rain = 0
KTAT 111020Z 23006KT 03/00 A2983 RMK A01 T00280004  RH  085%=      5-min Rain = 0
KTAT 111025Z 25006KT 03/00 A2984 RMK A01 T00260004  RH  086%=      5-min Rain = 0
KTAT 111030Z 24005KT 03/01 A2983 RMK A01 T00270005  RH  086%=      5-min Rain = 0
KTAT 111035Z 24004KT 03/01 A2983 RMK A01 T00290006  RH  086%=      5-min Rain = 0
KTAT 111040Z 24003KT 03/01 A2983 RMK A01 T00300006  RH  085%=      5-min Rain = 0
KTAT 111045Z 25002KT 03/01 A2983 RMK A01 T00300006  RH  086%=      5-min Rain = 0
KTAT 111050Z 28003KT 03/01 A2983 RMK A01 T00300007  RH  086%=      5-min Rain = 0
KTAT 111055Z 29004KT 03/01 A2983 RMK A01 T00320009  RH  086%=      5-min Rain = 0
KTAT 111100Z 29005KT 04/01 A2983 RMK A01 T00360011  RH  085%=      5-min Rain = 0
KTAT 111105Z 31006KT 04/01 A2983 RMK A01 T00360011  RH  085%=      5-min Rain = 0
KTAT 111110Z 30003KT 03/01 A2982 RMK A01 T00330009  RH  085%=      5-min Rain = 0
KTAT 111115Z 29002KT 03/01 A2982 RMK A01 T00320009  RH  086%=      5-min Rain = 0
KTAT 111120Z 28004KT 03/01 A2982 RMK A01 T00340010  RH  086%=      5-min Rain = 0
KTAT 111125Z 28005KT 04/01 A2981 RMK A01 T00400013  RH  084%=      5-min Rain = 0
KTAT 111130Z 26005KT 04/01 A2981 RMK A01 T00390012  RH  083%=      5-min Rain = 0
KTAT 111135Z 25005KT 04/01 A2981 RMK A01 T00370012  RH  084%=      5-min Rain = 0
KTAT 111140Z 23006KT 04/01 A2981 RMK A01 T00370012  RH  085%=      5-min Rain = 0
KTAT 111145Z 24006KT 04/01 A2981 RMK A01 T00370014  RH  086%=      5-min Rain = 0
KTAT 111150Z 24006KT 04/02 A2981 RMK A01 T00390015  RH  086%=      5-min Rain = 0
KTAT 111155Z 25006KT 04/02 A2981 RMK A01 T00400015  RH  085%=      5-min Rain = 0
KTAT 111200Z 24006KT 04/01 A2981 RMK A01 T00380014  RH  085%=      5-min Rain = 0
KTAT 111205Z 23006KT 04/01 A298 RMK A01 T00370013  RH  086%=      5-min Rain = 0
KTAT 111210Z 21005KT 04/01 A298 RMK A01 T00350011  RH  086%=      5-min Rain = 0
KTAT 111215Z 20006KT 04/01 A2979 RMK A01 T00370013  RH  086%=      5-min Rain = 0
KTAT 111220Z 20005KT 04/01 A298 RMK A01 T00380013  RH  085%=      5-min Rain = 0
KTAT 111225Z 22004KT 04/01 A2979 RMK A01 T00400014  RH  085%=      5-min Rain = 0
KTAT 111230Z 31002KT 04/01 A2979 RMK A01 T00400012  RH  083%=      5-min Rain = 0
KTAT 111235Z 24002KT 04/01 A298 RMK A01 T00380012  RH  085%=      5-min Rain = 0
KTAT 111240Z 21010G15KT 05/02 A298 RMK A01 T00470021  RH  085%=      5-min Rain = 0
KTAT 111245Z 20013KT 06/02 A2979 RMK A01 T00570023  RH  080%=      5-min Rain = 0
KTAT 111250Z 21011KT 06/02 A2979 RMK A01 T00560021  RH  080%=      5-min Rain = 0
KTAT 111255Z 21011KT 05/02 A2979 RMK A01 T00540021  RH  081%=      5-min Rain = 0
KTAT 111300Z 21011KT 05/02 A2979 RMK A01 T00530022  RH  081%=      5-min Rain = 0
KTAT 111305Z 20012KT 06/02 A298 RMK A01 T00550023  RH  081%=      5-min Rain = 0
KTAT 111310Z 20014KT 06/02 A298 RMK A01 T00560024  RH  081%=      5-min Rain = 0
KTAT 111315Z 20013KT 06/02 A298 RMK A01 T00560022  RH  080%=      5-min Rain = 0
KTAT 111320Z 20012KT 05/02 A2979 RMK A01 T00540022  RH  081%=      5-min Rain = 0
KTAT 111325Z 20012KT 05/02 A2979 RMK A01 T00530021  RH  081%=      5-min Rain = 0
KTAT 111330Z 20013KT 05/02 A2979 RMK A01 T00530021  RH  081%=      5-min Rain = 0
KTAT 111335Z 20013KT 05/02 A2979 RMK A01 T00520020  RH  081%=      5-min Rain = 0
KTAT 111340Z 20013KT 05/02 A2979 RMK A01 T00510020  RH  081%=      5-min Rain = 0
KTAT 111345Z 20014KT 05/02 A2979 RMK A01 T00520020  RH  081%=      5-min Rain = 0
KTAT 111350Z 21015KT 05/02 A2979 RMK A01 T00540020  RH  080%=      5-min Rain = 0
KTAT 111355Z 21014KT 05/02 A2979 RMK A01 T00540019  RH  080%=      5-min Rain = 0
KTAT 111400Z 21013KT 05/02 A2979 RMK A01 T00530019  RH  080%=      5-min Rain = 0
KTAT 111405Z 21012KT 05/02 A2979 RMK A01 T00530020  RH  080%=      5-min Rain = 0
KTAT 111410Z 21012KT 05/02 A2979 RMK A01 T00530020  RH  080%=      5-min Rain = 0
KTAT 111415Z 21011KT 05/02 A2979 RMK A01 T00530020  RH  080%=      5-min Rain = 0
KTAT 111420Z 20011KT 05/02 A2979 RMK A01 T00530020  RH  081%=      5-min Rain = 0
KTAT 111425Z 20011KT 05/02 A2979 RMK A01 T00540021  RH  081%=      5-min Rain = 0
KTAT 111430Z 20011KT 06/02 A2979 RMK A01 T00560022  RH  080%=      5-min Rain = 0
KTAT 111435Z 20010KT 06/02 A2979 RMK A01 T00590024  RH  079%=      5-min Rain = 0
KTAT 111440Z 19010KT 06/03 A2979 RMK A01 T00600025  RH  079%=      5-min Rain = 0
KTAT 111445Z 20013G18KT 06/03 A2979 RMK A01 T00640027  RH  079%=      5-min Rain = 0
KTAT 111450Z 20016KT 07/03 A2979 RMK A01 T00690028  RH  077%=      5-min Rain = 0
KTAT 111455Z 20016KT 07/03 A2979 RMK A01 T00700028  RH  076%=      5-min Rain = 0
KTAT 111500Z 20016KT 07/03 A2979 RMK A01 T00700028  RH  076%=      5-min Rain = 0
KTAT 111505Z 20015KT 07/03 A2979 RMK A01 T00710029  RH  076%=      5-min Rain = 0
KTAT 111510Z 20016KT 07/03 A2979 RMK A01 T00730031  RH  076%=      5-min Rain = 0
KTAT 111515Z 21015G20KT 08/03 A298 RMK A01 T00750034  RH  077%=      5-min Rain = 0
KTAT 111520Z 21015KT 08/04 A298 RMK A01 T00780036  RH  076%=      5-min Rain = 0
KTAT 111525Z 20016KT 08/04 A298 RMK A01 T00800037  RH  075%=      5-min Rain = 0
KTAT 111530Z 20016KT 08/04 A298 RMK A01 T00810037  RH  075%=      5-min Rain = 0
KTAT 111535Z 20016G22KT 08/04 A2981 RMK A01 T00820037  RH  075%=      5-min Rain = 0
KTAT 111540Z 20016KT 08/04 A2981 RMK A01 T00830037  RH  074%=      5-min Rain = 0
KTAT 111545Z 20016KT 08/04 A2981 RMK A01 T00840037  RH  074%=      5-min Rain = 0
KTAT 111550Z 19016G22KT 09/04 A2981 RMK A01 T00850037  RH  073%=      5-min Rain = 0
KTAT 111555Z 19016G21KT 08/04 A2981 RMK A01 T00830037  RH  074%=      5-min Rain = 0
KTAT 111600Z 19016G21KT 08/04 A2981 RMK A01 T00820037  RH  074%=      5-min Rain = 0
KTAT 111605Z 19017G22KT 08/04 A2981 RMK A01 T00820037  RH  075%=      5-min Rain = 0
KTAT 111610Z 19016KT 08/04 A2981 RMK A01 T00820037  RH  075%=      5-min Rain = 0
KTAT 111615Z 19015KT 08/04 A2981 RMK A01 T00840039  RH  075%=      5-min Rain = 0
KTAT 111620Z 19018KT 09/04 A2981 RMK A01 T00860039  RH  074%=      5-min Rain = 0
KTAT 111625Z 19017G22KT 09/04 A298 RMK A01 T00890041  RH  073%=      5-min Rain = 0
KTAT 111630Z 20017G22KT 10/04 A298 RMK A01 T00950042  RH  071%=      5-min Rain = 0
KTAT 111635Z 20018G24KT 10/04 A298 RMK A01 T00970041  RH  069%=      5-min Rain = 0
KTAT 111640Z 20019KT 10/04 A2979 RMK A01 T00990040  RH  068%=      5-min Rain = 0
KTAT 111645Z 20019G26KT 10/04 A2979 RMK A01 T01010040  RH  067%=      5-min Rain = 0
KTAT 111650Z 20019G27KT 10/04 A2979 RMK A01 T01040038  RH  065%=      5-min Rain = 0
KTAT 111655Z 21020G25KT 10/04 A2979 RMK A01 T01020035  RH  064%=      5-min Rain = 0
KTAT 111700Z 21020G25KT 10/04 A2979 RMK A01 T01030035  RH  064%=      5-min Rain = 0
KTAT 111705Z 21020G25KT 10/03 A2979 RMK A01 T01040034  RH  063%=      5-min Rain = 0
KTAT 111710Z 21021G26KT 11/04 A2978 RMK A01 T01060035  RH  063%=      5-min Rain = 0
KTAT 111715Z 21019KT 11/04 A2978 RMK A01 T01080039  RH  063%=      5-min Rain = 0
KTAT 111720Z 21021G26KT 11/04 A2978 RMK A01 T01110040  RH  063%=      5-min Rain = 0
KTAT 111725Z 20020G25KT 11/04 A2977 RMK A01 T01120039  RH  062%=      5-min Rain = 0
KTAT 111730Z 20019G25KT 11/04 A2977 RMK A01 T01090038  RH  063%=      5-min Rain = 0
KTAT 111735Z 20019G24KT 11/04 A2977 RMK A01 T01130040  RH  062%=      5-min Rain = 0
KTAT 111740Z 20022G28KT 12/04 A2976 RMK A01 T01180037  RH  059%=      5-min Rain = 0
KTAT 111745Z 21024G29KT 12/03 A2976 RMK A01 T01220032  RH  055%=      5-min Rain = 0
KTAT 111750Z 21025G31KT 12/03 A2976 RMK A01 T01230028  RH  053%=      5-min Rain = 0
KTAT 111755Z 21023G31KT 12/03 A2976 RMK A01 T01180026  RH  054%=      5-min Rain = 0
KTAT 111800Z 21023G29KT 12/03 A2975 RMK A01 T01170028  RH  055%=      5-min Rain = 0
KTAT 111805Z 21024G30KT 12/03 A2975 RMK A01 T01150029  RH  056%=      5-min Rain = 0
KTAT 111810Z 21023G28KT 11/03 A2974 RMK A01 T01140029  RH  057%=      5-min Rain = 0
KTAT 111815Z 21023G28KT 12/03 A2974 RMK A01 T01170030  RH  056%=      5-min Rain = 0
KTAT 111820Z 21023G30KT 12/03 A2974 RMK A01 T01220030  RH  054%=      5-min Rain = 0
KTAT 111825Z 21024G32KT 12/03 A2974 RMK A01 T01220027  RH  053%=      5-min Rain = 0
KTAT 111830Z 21027G32KT 12/02 A2973 RMK A01 T01230024  RH  051%=      5-min Rain = 0
KTAT 111835Z 22026G33KT 13/03 A2973 RMK A01 T01250026  RH  052%=      5-min Rain = 0
KTAT 111840Z 22028G33KT 13/02 A2973 RMK A01 T01290021  RH  049%=      5-min Rain = 0
KTAT 111845Z 22028G35KT 14/02 A2972 RMK A01 T01350019  RH  046%=      5-min Rain = 0
KTAT 111850Z 22031G37KT 13/02 A2972 RMK A01 T01340016  RH  045%=      5-min Rain = 0
KTAT 111855Z 22029G38KT 14/02 A2972 RMK A01 T01390018  RH  045%=      5-min Rain = 0
KTAT 111900Z 22031G38KT 14/01 A2971 RMK A01 T01440012  RH  041%=      5-min Rain = 0
KTAT 111905Z 22032G38KT 14/01 A2971 RMK A01 T01430009  RH  041%=      5-min Rain = 0
KTAT 111910Z 22031G45KT 15/01 A297 RMK A01 T01460006  RH  039%=      5-min Rain = 0
KTAT 111915Z 22033G43KT 15/01 A297 RMK A01 T01450005  RH  039%=      5-min Rain = 0
KTAT 111920Z 22030G40KT 15/01 A2969 RMK A01 T01460009  RH  040%=      5-min Rain = 0
KTAT 111925Z 22030G38KT 15/01 A2969 RMK A01 T01510009  RH  039%=      5-min Rain = 0
KTAT 111930Z 22033G42KT 16/M01 A2968 RMK A01 T01551005  RH  034%=      5-min Rain = 0
KTAT 111935Z 23032G40KT 16/M01 A2968 RMK A01 T01561014  RH  031%=      5-min Rain = 0
KTAT 111940Z 23034G42KT 16/M04 A2968 RMK A01 T01591041  RH  025%=      5-min Rain = 0
KTAT 111945Z 24032G40KT 15/M04 A2969 RMK A01 T01541042  RH  026%=      5-min Rain = 0
KTAT 111950Z 24032G41KT 15/M04 A2969 RMK A01 T01521044  RH  026%=      5-min Rain = 0
KTAT 111955Z 24034G46KT 16/M05 A2968 RMK A01 T01551048  RH  024%=      5-min Rain = 0
KTAT 112000Z 24031G42KT 15/M06 A2968 RMK A01 T01531057  RH  023%=      5-min Rain = 0
KTAT 112005Z 23035G43KT 16/M05 A2968 RMK A01 T01561054  RH  023%=      5-min Rain = 0
KTAT 112010Z 24031G40KT 16/M07 A2968 RMK A01 T01581068  RH  020%=      5-min Rain = 0
KTAT 112015Z 23036G43KT 16/M08 A2968 RMK A01 T01591077  RH  019%=      5-min Rain = 0
KTAT 112020Z 23035G46KT 16/M08 A2967 RMK A01 T01571078  RH  019%=      5-min Rain = 0
KTAT 112025Z 23033G43KT 16/M08 A2967 RMK A01 T01591078  RH  019%=      5-min Rain = 0
KTAT 112030Z 24034G41KT 16/M08 A2967 RMK A01 T01581080  RH  019%=      5-min Rain = 0
KTAT 112035Z 23030G40KT 16/M08 A2967 RMK A01 T01591082  RH  018%=      5-min Rain = 0
KTAT 112040Z 24032G45KT 16/M09 A2967 RMK A01 T01581094  RH  017%=      5-min Rain = 0
KTAT 112045Z 24031G44KT 16/M10 A2967 RMK A01 T01581095  RH  017%=      5-min Rain = 0
KTAT 112050Z 24035G45KT 16/M10 A2967 RMK A01 T01581101  RH  016%=      5-min Rain = 0
KTAT 112055Z 25030G38KT 16/M10 A2967 RMK A01 T01571104  RH  016%=      5-min Rain = 0
KTAT 112100Z 24032G39KT 16/M11 A2967 RMK A01 T01551105  RH  016%=      5-min Rain = 0
KTAT 112105Z 25031G42KT 16/M10 A2967 RMK A01 T01571103  RH  016%=      5-min Rain = 0
KTAT 112110Z 26030G39KT 16/M11 A2967 RMK A01 T01581108  RH  015%=      5-min Rain = 0
KTAT 112115Z 27034G44KT 15/M12 A2967 RMK A01 T01531119  RH  014%=      5-min Rain = 0
KTAT 112120Z 27036G45KT 15/M13 A2967 RMK A01 T01491127  RH  014%=      5-min Rain = 0
KTAT 112125Z 27035G45KT 15/M13 A2968 RMK A01 T01461128  RH  014%=      5-min Rain = 0
KTAT 112130Z 27036G42KT 14/M13 A2968 RMK A01 T01431129  RH  014%=      5-min Rain = 0
KTAT 112135Z 27032G41KT 14/M13 A2969 RMK A01 T01421125  RH  014%=      5-min Rain = 0
KTAT 112140Z 27033G40KT 14/M12 A2969 RMK A01 T01431122  RH  015%=      5-min Rain = 0
KTAT 112145Z 27035G44KT 14/M12 A297 RMK A01 T01391122  RH  015%=      5-min Rain = 0
KTAT 112150Z 27031G37KT 14/M12 A2971 RMK A01 T01371120  RH  016%=      5-min Rain = 0
KTAT 112155Z 27031G37KT 14/M12 A2971 RMK A01 T01361115  RH  016%=      5-min Rain = 0
KTAT 112200Z 29033G40KT 12/M09 A2972 RMK A01 T01241086  RH  022%=      5-min Rain = 0
KTAT 112205Z 29033G41KT 12/M09 A2973 RMK A01 T01201086  RH  023%=      5-min Rain = 0
KTAT 112210Z 30032G39KT 12/M09 A2973 RMK A01 T01171089  RH  023%=      5-min Rain = 0
KTAT 112215Z 30033G41KT 11/M09 A2974 RMK A01 T01141091  RH  023%=      5-min Rain = 0
KTAT 112220Z 30035G43KT 11/M10 A2974 RMK A01 T01111095  RH  022%=      5-min Rain = 0
KTAT 112225Z 29035G43KT 11/M10 A2974 RMK A01 T01081104  RH  021%=      5-min Rain = 0
KTAT 112230Z 29037G45KT 11/M13 A2975 RMK A01 T01071132  RH  017%=      5-min Rain = 0
KTAT 112235Z 29035G44KT 11/M16 A2975 RMK A01 T01061158  RH  014%=      5-min Rain = 0
KTAT 112240Z 28032G42KT 11/M17 A2975 RMK A01 T01051166  RH  013%=      5-min Rain = 0
KTAT 112245Z 29035G43KT 10/M17 A2975 RMK A01 T01031172  RH  013%=      5-min Rain = 0
KTAT 112250Z 29034G44KT 10/M17 A2976 RMK A01 T01031174  RH  012%=      5-min Rain = 0
KTAT 112255Z 29035G46KT 10/M18 A2976 RMK A01 T00991181  RH  012%=      5-min Rain = 0
KTAT 112300Z 29036G47KT 10/M18 A2977 RMK A01 T00961183  RH  012%=      5-min Rain = 0
KTAT 112305Z 29036G45KT 09/M18 A2977 RMK A01 T00941182  RH  012%=      5-min Rain = 0
KTAT 112310Z 29037G46KT 09/M18 A2977 RMK A01 T00931178  RH  013%=      5-min Rain = 0
KTAT 112315Z 29036G50KT 09/M18 A2977 RMK A01 T00921176  RH  013%=      5-min Rain = 0
KTAT 112320Z 29038G47KT 09/M18 A2978 RMK A01 T00901176  RH  013%=      5-min Rain = 0
KTAT 112325Z 29040G49KT 09/M18 A2978 RMK A01 T00891175  RH  013%=      5-min Rain = 0
KTAT 112330Z 29035G47KT 09/M17 A2978 RMK A01 T00891174  RH  014%=      5-min Rain = 0
KTAT 112335Z 29036G44KT 09/M18 A2979 RMK A01 T00871175  RH  014%=      5-min Rain = 0
KTAT 112340Z 29033G43KT 09/M17 A298 RMK A01 T00851174  RH  014%=      5-min Rain = 0
KTAT 112345Z 28031G43KT 08/M18 A298 RMK A01 T00841177  RH  014%=      5-min Rain = 0
KTAT 112350Z 28031G39KT 08/M18 A2981 RMK A01 T00821176  RH  014%=      5-min Rain = 0
KTAT 112355Z 29029G36KT 08/M17 A2981 RMK A01 T00811174  RH  014%=      5-min Rain = 0
KTAT 120000Z 28028G39KT 08/M17 A2982 RMK A01 T00801172  RH  015%=      5-min Rain = 0
KTAT 120005Z 28028G35KT 08/M17 A2982 RMK A01 T00791171  RH  015%=      5-min Rain = 0
KTAT 120010Z 28025G31KT 08/M17 A2982 RMK A01 T00781170  RH  015%=      5-min Rain = 0
KTAT 120015Z 28027G34KT 08/M17 A2982 RMK A01 T00771170  RH  015%=      5-min Rain = 0
KTAT 120020Z 28027G34KT 08/M17 A2983 RMK A01 T00761170  RH  015%=      5-min Rain = 0
KTAT 120025Z 28025G32KT 07/M17 A2983 RMK A01 T00741169  RH  016%=      5-min Rain = 0
KTAT 120030Z 29027G38KT 07/M17 A2983 RMK A01 T00741168  RH  016%=      5-min Rain = 0
KTAT 120035Z 28024G29KT 07/M17 A2983 RMK A01 T00721168  RH  016%=      5-min Rain = 0
KTAT 120040Z 28023G29KT 07/M17 A2984 RMK A01 T00711168  RH  016%=      5-min Rain = 0
KTAT 120045Z 28023G29KT 07/M17 A2984 RMK A01 T00691167  RH  016%=      5-min Rain = 0
KTAT 120050Z 28022G27KT 07/M17 A2984 RMK A01 T00671166  RH  017%=      5-min Rain = 0
KTAT 120055Z 28022G27KT 07/M16 A2985 RMK A01 T00661161  RH  018%=      5-min Rain = 0
KTAT 120100Z 28021G27KT 06/M16 A2985 RMK A01 T00641158  RH  019%=      5-min Rain = 0
KTAT 120105Z 27020G25KT 06/M16 A2985 RMK A01 T00631157  RH  019%=      5-min Rain = 0
KTAT 120110Z 28019G24KT 06/M16 A2986 RMK A01 T00621156  RH  019%=      5-min Rain = 0
KTAT 120115Z 27019KT 06/M16 A2987 RMK A01 T00601155  RH  019%=      5-min Rain = 0
KTAT 120120Z 27018KT 06/M16 A2987 RMK A01 T00611155  RH  019%=      5-min Rain = 0
KTAT 120125Z 27018KT 06/M15 A2988 RMK A01 T00591154  RH  020%=      5-min Rain = 0
KTAT 120130Z 27017KT 06/M15 A2988 RMK A01 T00581154  RH  020%=      5-min Rain = 0
KTAT 120135Z 27016KT 06/M15 A2989 RMK A01 T00561153  RH  020%=      5-min Rain = 0
KTAT 120140Z 27014KT 05/M15 A299 RMK A01 T00531153  RH  021%=      5-min Rain = 0
KTAT 120145Z 27015KT 05/M15 A299 RMK A01 T00521153  RH  021%=      5-min Rain = 0
KTAT 120150Z 28017G23KT 05/M15 A299 RMK A01 T00531152  RH  021%=      5-min Rain = 0
KTAT 120155Z 28019G25KT 05/M15 A299 RMK A01 T00541152  RH  021%=      5-min Rain = 0
KTAT 120200Z 29023G29KT 06/M15 A299 RMK A01 T00581151  RH  020%=      5-min Rain = 0
KTAT 120205Z 29022G27KT 06/M15 A2991 RMK A01 T00601149  RH  021%=      5-min Rain = 0
KTAT 120210Z 29023G30KT 06/M15 A2991 RMK A01 T00621146  RH  021%=      5-min Rain = 0
KTAT 120215Z 29022G29KT 06/M15 A2992 RMK A01 T00631146  RH  021%=      5-min Rain = 0
KTAT 120220Z 28022G28KT 06/M15 A2992 RMK A01 T00621146  RH  021%=      5-min Rain = 0
KTAT 120225Z 28020G27KT 06/M15 A2993 RMK A01 T00601146  RH  021%=      5-min Rain = 0
KTAT 120230Z 28018G24KT 06/M15 A2993 RMK A01 T00561146  RH  022%=      5-min Rain = 0
KTAT 120235Z 28020G25KT 06/M15 A2994 RMK A01 T00551146  RH  022%=      5-min Rain = 0
KTAT 120240Z 28020G25KT 05/M15 A2994 RMK A01 T00541146  RH  022%=      5-min Rain = 0
KTAT 120245Z 28017KT 05/M15 A2995 RMK A01 T00511145  RH  023%=      5-min Rain = 0
KTAT 120250Z 28017G22KT 05/M14 A2996 RMK A01 T00491144  RH  023%=      5-min Rain = 0
KTAT 120255Z 28017KT 05/M14 A2996 RMK A01 T00491142  RH  023%=      5-min Rain = 0
KTAT 120300Z 28016G21KT 05/M14 A2996 RMK A01 T00471141  RH  024%=      5-min Rain = 0
KTAT 120305Z 28018G25KT 05/M14 A2997 RMK A01 T00471140  RH  024%=      5-min Rain = 0
KTAT 120310Z 28019G24KT 05/M14 A2997 RMK A01 T00481139  RH  024%=      5-min Rain = 0
KTAT 120315Z 28017G22KT 05/M14 A2997 RMK A01 T00461139  RH  025%=      5-min Rain = 0
KTAT 120320Z 28018KT 05/M14 A2998 RMK A01 T00451138  RH  025%=      5-min Rain = 0
KTAT 120325Z 28018G23KT 04/M14 A2998 RMK A01 T00441138  RH  025%=      5-min Rain = 0
KTAT 120330Z 28018KT 04/M14 A2998 RMK A01 T00441137  RH  025%=      5-min Rain = 0
KTAT 120335Z 28018G24KT 04/M14 A2999 RMK A01 T00431138  RH  025%=      5-min Rain = 0
KTAT 120340Z 28018KT 04/M14 A2999 RMK A01 T00421139  RH  025%=      5-min Rain = 0
KTAT 120345Z 28020KT 04/M14 A2999 RMK A01 T00421138  RH  025%=      5-min Rain = 0
KTAT 120350Z 29020G26KT 04/M14 A2999 RMK A01 T00431135  RH  026%=      5-min Rain = 0
KTAT 120355Z 29021G27KT 05/M13 A30 RMK A01 T00471132  RH  026%=      5-min Rain = 0
KTAT 120400Z 29021G26KT 05/M13 A30 RMK A01 T00471131  RH  026%=      5-min Rain = 0
KTAT 120405Z 29022KT 05/M13 A30 RMK A01 T00471130  RH  026%=      5-min Rain = 0
KTAT 120410Z 29020G25KT 05/M13 A3001 RMK A01 T00461130  RH  026%=      5-min Rain = 0
KTAT 120415Z 29021KT 05/M13 A3001 RMK A01 T00451128  RH  027%=      5-min Rain = 0
KTAT 120420Z 29021KT 04/M13 A3002 RMK A01 T00441127  RH  027%=      5-min Rain = 0
KTAT 120425Z 29021G26KT 04/M13 A3002 RMK A01 T00431126  RH  028%=      5-min Rain = 0
KTAT 120430Z 29021KT 04/M12 A3003 RMK A01 T00421124  RH  028%=      5-min Rain = 0
KTAT 120435Z 29020G27KT 04/M12 A3003 RMK A01 T00431122  RH  029%=      5-min Rain = 0
KTAT 120440Z 29022G29KT 04/M12 A3003 RMK A01 T00441120  RH  029%=      5-min Rain = 0
KTAT 120445Z 29023G31KT 05/M12 A3003 RMK A01 T00451119  RH  029%=      5-min Rain = 0
KTAT 120450Z 29024KT 05/M12 A3004 RMK A01 T00471119  RH  029%=      5-min Rain = 0
KTAT 120455Z 29024G29KT 05/M12 A3004 RMK A01 T00461118  RH  029%=      5-min Rain = 0
KTAT 120500Z 29025G30KT 05/M12 A3005 RMK A01 T00461118  RH  029%=      5-min Rain = 0
KTAT 120505Z 29022G30KT 05/M12 A3005 RMK A01 T00451117  RH  029%=      5-min Rain = 0
KTAT 120510Z 30023G29KT 05/M12 A3006 RMK A01 T00451116  RH  030%=      5-min Rain = 0
KTAT 120515Z 30024G31KT 05/M12 A3006 RMK A01 T00461116  RH  030%=      5-min Rain = 0
KTAT 120520Z 30023G30KT 05/M12 A3006 RMK A01 T00451116  RH  030%=      5-min Rain = 0
KTAT 120525Z 30022G28KT 04/M12 A3006 RMK A01 T00441115  RH  030%=      5-min Rain = 0
KTAT 120530Z 30022KT 04/M12 A3007 RMK A01 T00431115  RH  031%=      5-min Rain = 0
KTAT 120535Z 30022G27KT 04/M12 A3007 RMK A01 T00421115  RH  031%=      5-min Rain = 0
KTAT 120540Z 30022G27KT 04/M11 A3007 RMK A01 T00421114  RH  031%=      5-min Rain = 0
KTAT 120545Z 30019G27KT 04/M11 A3008 RMK A01 T00401114  RH  031%=      5-min Rain = 0
KTAT 120550Z 30019KT 04/M11 A3008 RMK A01 T00381114  RH  032%=      5-min Rain = 0
KTAT 120555Z 30018G23KT 04/M11 A3008 RMK A01 T00371114  RH  032%=      5-min Rain = 0

Page generated in 0.0092 seconds.